Culpeper, VA

12:01 AM EST on January 18, 2017 (GMT -0500)
Culpeper Regional | | Change Station
Active Advisory: Small Craft Advisory

Elev 312 ft 38.53 °N, 77.86 °W | Updated 6 minutes ago

Clear
Clear
54 °F
Feels Like 54 °F
N
6
Wind Variable Wind from SSW

Today
High -- | Low -- °F
--% Chance of Precip.
Yesterday
High -- | Low -- °F
Precip. -- in
Pressure 29.89 in
Visibility 10.0 miles
Clouds Clear
Dew Point 52 °F
Humidity 95%
Rainfall 0.16 in
Snow Depth Not available.
7:26 AM 5:18 PM
Waning Gibbous, 66% visible
METAR KCJR 180455Z AUTO 21005KT 10SM CLR 12/11 A2989 RMK AO2 T01200113 401270047
Pressure 29.89 in
Visibility 10.0 miles
Clouds Clear
Dew Point 52 °F
Humidity 95%
Rainfall 0.16 in
Snow Depth Not available.
7:26 AM 5:18 PM
Waning Gibbous, 66% visible
METAR KCJR 180455Z AUTO 21005KT 10SM CLR 12/11 A2989 RMK AO2 T01200113 401270047

Get Your Daily Forecast Email!

Thanks for signing up!

Be on the lookout for a verification email in your inbox.

You'll start receiving the daily forecast at 8 AM.

×

10-Day Weather Forecast

Almanac

Astronomy

Jan. 18, 2017 Rise Set
Actual Time
Civil Twilight
Nautical Twilight
Astronomical Twilight
Moon
Length of Visible Light
Length of Day
Tomorrow will be .
, % of the Moon is Illuminated

Today's Extremes

State Highs State Lows

Community

WunderPhotos

Upload Photos

1,962,540 photos uploaded!

WunderBlog® & News

Nearby

Air Quality

  Air Quality AQ Index Pollutant
Not available.

Snow Depth

Station Depth Elevation

Earthquake Activity

City Distance Mag. Time & Date
Minimum magnitude displayed is 2.5.

Coastal Water Temperatures

Place Temperature

Stations

Nearby Weather Stations

Station Location Temp. Windchill Dew Point Humidity Wind Precip. Elev Updated Type
                   

Watches & Warnings

Small Craft Advisory
Issued: 11:39 PM EST Jan. 17, 2017 – National Weather Service

... Small Craft Advisory remains in effect from 7 am to 6 PM EST
Wednesday...

* winds... 18 to 33 knots within the Small Craft Advisory.

Precautionary/preparedness actions...

A Small Craft Advisory means winds of 18 to 33 knots are imminent
or occurring. Boaters operating smaller vessels should avoid
navigating in these conditions.